Time;durP1;ratioP1;P1;durP2;ratioP2;P2;SDS_P1;SDS_P2;PMS_P1;PMS_P2;Temp;Humidity;BMP_temperature;BMP_pressure;BME280_temperature;BME280_humidity;BME280_pressure;Samples;Min_cycle;Max_cycle;Signal;HPM_P1;HPM_P2
2022/03/08 00:01:42;;;;;;;11.65;6.80;;;-3.20;71.90;;;;;;4933708;29;20059;-85
2022/03/08 00:04:08;;;;;;;9.02;5.90;;;-3.20;72.00;;;;;;4934710;29;20027;-83
2022/03/08 00:06:34;;;;;;;10.82;6.75;;;-3.30;72.40;;;;;;4932550;29;20059;-85
2022/03/08 00:09:01;;;;;;;8.15;7.35;;;-3.40;72.80;;;;;;4935844;29;20058;-83
2022/03/08 00:11:27;;;;;;;8.32;7.50;;;-3.50;72.70;;;;;;4937771;29;20129;-83
2022/03/08 00:13:53;;;;;;;9.98;7.10;;;-3.60;73.50;;;;;;4933905;29;20059;-83
2022/03/08 00:16:20;;;;;;;5.95;5.35;;;-3.40;73.60;;;;;;4934266;29;20032;-82
2022/03/08 00:18:48;;;;;;;7.60;6.18;;;-3.40;73.30;;;;;;4931711;29;20047;-83
2022/03/08 00:21:16;;;;;;;7.72;6.55;;;-3.50;73.20;;;;;;4918166;29;20513;-83
2022/03/08 00:23:43;;;;;;;5.88;5.30;;;-3.50;73.60;;;;;;4934111;29;20389;-85
2022/03/08 00:26:09;;;;;;;6.25;5.70;;;-3.50;73.40;;;;;;4921045;29;20036;-83
2022/03/08 00:28:36;;;;;;;6.97;6.07;;;-3.40;73.70;;;;;;4938573;29;20038;-83
2022/03/08 00:31:05;;;;;;;6.90;6.30;;;-3.50;73.80;;;;;;4935636;29;20047;-83
2022/03/08 00:33:33;;;;;;;7.28;5.90;;;-3.50;74.20;;;;;;4936396;29;20047;-83
2022/03/08 00:35:59;;;;;;;7.13;6.38;;;-3.60;75.00;;;;;;4920387;29;20520;-83
2022/03/08 00:38:26;;;;;;;7.38;6.28;;;-3.60;75.30;;;;;;4937846;29;20032;-84
2022/03/08 00:40:52;;;;;;;7.97;6.28;;;-3.60;75.60;;;;;;4936567;29;20482;-82
2022/03/08 00:43:19;;;;;;;6.93;6.07;;;-3.60;76.00;;;;;;4937786;29;20035;-83
2022/03/08 00:45:45;;;;;;;9.52;6.20;;;-3.70;76.10;;;;;;4937400;29;20048;-85
2022/03/08 00:48:11;;;;;;;7.95;7.15;;;-3.70;76.10;;;;;;4937134;29;20067;-82
2022/03/08 00:50:38;;;;;;;12.07;7.43;;;-3.80;76.70;;;;;;4937145;29;20036;-82
2022/03/08 00:53:05;;;;;;;7.22;6.50;;;-3.80;77.50;;;;;;4941837;29;20040;-82
2022/03/08 00:55:34;;;;;;;8.32;7.43;;;-3.80;77.60;;;;;;4915020;29;20048;-82
2022/03/08 00:58:02;;;;;;;7.55;6.15;;;-3.80;77.70;;;;;;4933995;29;20399;-82
2022/03/08 01:00:30;;;;;;;8.55;7.55;;;-3.80;78.20;;;;;;4902143;29;20043;-82
2022/03/08 01:02:58;;;;;;;8.95;7.25;;;-3.90;79.50;;;;;;4917880;29;20051;-82
2022/03/08 01:05:25;;;;;;;9.75;6.60;;;-3.90;80.50;;;;;;4931307;28;20058;-82
2022/03/08 01:07:53;;;;;;;26.17;7.47;;;-3.90;81.20;;;;;;4936590;29;20040;-82
2022/03/08 01:10:22;;;;;;;11.05;8.00;;;-4.00;81.70;;;;;;4933560;29;20406;-82
2022/03/08 01:12:50;;;;;;;7.38;6.63;;;-4.00;82.30;;;;;;4924413;29;20052;-82
2022/03/08 01:15:18;;;;;;;7.18;6.45;;;-4.10;82.70;;;;;;4942842;29;20059;-82
2022/03/08 01:17:45;;;;;;;7.80;6.63;;;-4.10;83.50;;;;;;4910227;29;20043;-86
2022/03/08 01:20:11;;;;;;;7.20;6.45;;;-4.20;83.80;;;;;;4922906;29;20044;-82
2022/03/08 01:22:38;;;;;;;6.85;5.85;;;-4.20;84.10;;;;;;4905230;29;20047;-82
2022/03/08 01:25:06;;;;;;;6.32;5.72;;;-4.20;84.40;;;;;;4912276;29;20054;-83
2022/03/08 01:27:33;;;;;;;7.43;6.65;;;-4.20;84.30;;;;;;4937298;29;20040;-83
2022/03/08 01:30:00;;;;;;;9.70;6.22;;;-4.30;84.10;;;;;;4919688;29;20036;-84
2022/03/08 01:32:26;;;;;;;10.65;6.85;;;-4.30;84.20;;;;;;4917552;29;20047;-83
2022/03/08 01:34:52;;;;;;;9.27;7.25;;;-4.30;84.40;;;;;;4922237;29;20051;-83
2022/03/08 01:37:20;;;;;;;5.80;5.35;;;-4.30;84.10;;;;;;4927555;29;20051;-83
2022/03/08 01:39:46;;;;;;;7.85;6.55;;;-4.30;84.20;;;;;;4935676;29;20059;-83
2022/03/08 01:42:16;;;;;;;6.80;5.90;;;-4.30;84.10;;;;;;4907518;29;20048;-82
2022/03/08 01:44:44;;;;;;;7.00;5.93;;;-4.30;84.00;;;;;;4928884;29;20043;-83
2022/03/08 01:47:22;;;;;;;7.38;6.68;;;-4.30;83.80;;;;;;4918847;29;20146;-83
2022/03/08 01:49:51;;;;;;;6.97;6.30;;;-4.30;83.20;;;;;;4919556;29;20363;-83
2022/03/08 01:52:21;;;;;;;12.18;7.68;;;-4.20;83.60;;;;;;4919183;29;20070;-83
2022/03/08 01:54:48;;;;;;;6.95;5.97;;;-4.20;83.50;;;;;;4935897;29;20039;-84
2022/03/08 01:57:14;;;;;;;7.25;6.50;;;-4.20;83.60;;;;;;4933653;29;20043;-83
2022/03/08 01:59:42;;;;;;;5.07;4.65;;;-4.20;83.90;;;;;;4936126;29;20027;-82
2022/03/08 02:02:09;;;;;;;9.52;6.70;;;-4.20;83.80;;;;;;4937115;29;20465;-82
2022/03/08 02:04:35;;;;;;;7.78;6.50;;;-4.20;84.10;;;;;;4934652;29;20038;-83
2022/03/08 02:07:04;;;;;;;7.53;6.82;;;-4.30;84.20;;;;;;4897151;29;20406;-82
2022/03/08 02:09:31;;;;;;;6.85;6.22;;;-4.30;84.30;;;;;;4898202;29;20036;-83
2022/03/08 02:11:57;;;;;;;8.32;6.63;;;-4.40;85.10;;;;;;4901889;29;20037;-83
2022/03/08 02:14:23;;;;;;;9.15;6.22;;;-4.40;84.80;;;;;;4895355;29;20037;-83
2022/03/08 02:16:50;;;;;;;6.60;6.03;;;-4.40;85.20;;;;;;4898079;29;20041;-83
2022/03/08 02:19:16;;;;;;;7.38;6.63;;;-4.40;84.80;;;;;;4881541;29;20036;-83
2022/03/08 02:21:45;;;;;;;5.82;5.25;;;-4.50;84.40;;;;;;4898857;29;20051;-83
2022/03/08 02:24:11;;;;;;;7.80;7.10;;;-4.50;85.10;;;;;;4924498;29;20051;-82
2022/03/08 02:26:37;;;;;;;6.70;5.97;;;-4.50;84.30;;;;;;4931547;29;20044;-83
2022/03/08 02:29:06;;;;;;;8.50;7.35;;;-4.60;83.80;;;;;;4904787;29;20036;-83
2022/03/08 02:31:32;;;;;;;7.82;7.03;;;-4.60;84.50;;;;;;4897993;29;20393;-82
2022/03/08 02:33:59;;;;;;;7.88;6.07;;;-4.70;85.20;;;;;;4897505;29;20063;-83
2022/03/08 02:36:25;;;;;;;7.70;7.03;;;-4.60;85.20;;;;;;4897441;29;20055;-82
2022/03/08 02:38:51;;;;;;;9.50;6.43;;;-4.60;84.90;;;;;;4897355;29;20036;-82
2022/03/08 02:41:17;;;;;;;12.50;6.72;;;-4.60;85.10;;;;;;4912020;29;20032;-82
2022/03/08 02:43:44;;;;;;;7.15;5.45;;;-4.70;85.30;;;;;;4912306;29;20048;-82
2022/03/08 02:46:10;;;;;;;7.85;5.82;;;-4.80;85.60;;;;;;4908645;29;20077;-82
2022/03/08 02:48:36;;;;;;;7.28;6.57;;;-4.90;86.40;;;;;;4896064;29;20459;-82
2022/03/08 02:51:03;;;;;;;7.32;6.65;;;-5.00;87.30;;;;;;4911397;29;20051;-82
2022/03/08 02:53:30;;;;;;;7.45;6.43;;;-4.90;87.60;;;;;;4912470;29;20036;-82
2022/03/08 02:55:58;;;;;;;7.03;6.03;;;-4.90;88.00;;;;;;4896646;29;20036;-82
2022/03/08 02:58:24;;;;;;;7.10;6.28;;;-4.90;87.70;;;;;;4897778;29;20033;-82
2022/03/08 03:00:50;;;;;;;5.97;5.43;;;-4.90;87.80;;;;;;4895416;29;20052;-81
2022/03/08 03:03:17;;;;;;;6.68;6.07;;;-4.90;88.30;;;;;;4897180;29;20037;-81
2022/03/08 03:05:43;;;;;;;6.40;5.80;;;-4.90;88.20;;;;;;4906401;29;20477;-81
2022/03/08 03:08:09;;;;;;;7.70;6.55;;;-4.90;88.70;;;;;;4934339;29;20039;-81
2022/03/08 03:10:36;;;;;;;10.95;6.47;;;-4.90;89.60;;;;;;4934231;28;20047;-81
2022/03/08 03:13:03;;;;;;;6.32;5.72;;;-4.80;89.10;;;;;;4921534;29;20497;-81
2022/03/08 03:15:30;;;;;;;6.45;5.85;;;-4.70;88.90;;;;;;4932095;29;20043;-82
2022/03/08 03:17:57;;;;;;;5.80;5.30;;;-4.80;88.90;;;;;;4933813;29;20366;-82
2022/03/08 03:20:26;;;;;;;12.93;6.97;;;-4.80;89.40;;;;;;4930494;29;20039;-81
2022/03/08 03:22:52;;;;;;;7.07;6.35;;;-4.90;89.70;;;;;;4934022;28;20067;-81
2022/03/08 03:25:19;;;;;;;6.68;6.00;;;-4.90;90.50;;;;;;4911174;29;20051;-82
2022/03/08 03:27:45;;;;;;;7.43;6.70;;;-4.90;89.50;;;;;;4898743;29;20040;-85
2022/03/08 03:30:14;;;;;;;8.55;7.32;;;-4.80;89.20;;;;;;4927899;29;20051;-81
2022/03/08 03:32:41;;;;;;;8.10;5.97;;;-4.80;89.30;;;;;;4917321;29;20165;-82
2022/03/08 03:35:08;;;;;;;7.15;5.20;;;-4.80;89.10;;;;;;4931663;29;20066;-82
2022/03/08 03:37:34;;;;;;;6.10;5.50;;;-4.80;89.20;;;;;;4934855;29;20027;-83
2022/03/08 03:40:00;;;;;;;10.07;6.60;;;-4.80;89.40;;;;;;4932618;29;20038;-81
2022/03/08 03:42:27;;;;;;;12.15;7.57;;;-4.90;90.30;;;;;;4907718;29;20501;-81
2022/03/08 03:44:53;;;;;;;8.32;7.20;;;-4.90;90.60;;;;;;4919505;29;20051;-82
2022/03/08 03:47:19;;;;;;;7.68;6.85;;;-4.90;90.50;;;;;;4921226;29;20043;-81
2022/03/08 03:49:45;;;;;;;6.82;6.13;;;-4.90;90.50;;;;;;4917995;29;20036;-84
2022/03/08 03:52:11;;;;;;;9.15;6.65;;;-4.90;90.30;;;;;;4936884;29;20047;-82
2022/03/08 03:54:38;;;;;;;6.57;5.85;;;-5.00;90.50;;;;;;4937565;29;20027;-82
2022/03/08 03:57:04;;;;;;;5.40;5.00;;;-5.10;90.50;;;;;;4932581;29;20032;-82
2022/03/08 03:59:30;;;;;;;7.55;6.80;;;-5.00;90.80;;;;;;4919728;29;20040;-81
2022/03/08 04:01:57;;;;;;;6.95;6.32;;;-5.10;90.70;;;;;;4937358;29;20024;-82
2022/03/08 04:04:23;;;;;;;5.75;5.22;;;-5.20;90.80;;;;;;4934563;29;20429;-82
2022/03/08 04:06:49;;;;;;;6.43;5.57;;;-5.30;91.10;;;;;;4937543;29;20063;-82
2022/03/08 04:09:15;;;;;;;8.50;7.50;;;-5.30;91.30;;;;;;4921159;29;20572;-81
2022/03/08 04:11:42;;;;;;;8.23;7.38;;;-5.30;91.50;;;;;;4934101;29;20032;-81
2022/03/08 04:14:08;;;;;;;6.03;5.32;;;-5.30;91.70;;;;;;4937366;29;20580;-82
2022/03/08 04:16:34;;;;;;;7.82;6.85;;;-5.30;92.10;;;;;;4936633;29;20039;-82
2022/03/08 04:19:00;;;;;;;7.45;6.75;;;-5.30;92.10;;;;;;4931291;29;20047;-82
2022/03/08 04:21:26;;;;;;;8.07;6.25;;;-5.40;92.00;;;;;;4936692;29;20043;-81
2022/03/08 04:23:52;;;;;;;9.65;7.10;;;-5.40;92.50;;;;;;4919956;29;20477;-81
2022/03/08 04:26:19;;;;;;;6.85;6.28;;;-5.40;92.50;;;;;;4920285;29;20392;-81
2022/03/08 04:28:45;;;;;;;9.15;7.70;;;-5.20;92.90;;;;;;4937538;29;20027;-81
2022/03/08 04:31:11;;;;;;;8.82;7.60;;;-5.20;92.70;;;;;;4917662;29;20397;-81
2022/03/08 04:33:38;;;;;;;6.65;6.00;;;-5.10;92.20;;;;;;4937317;29;20048;-81
2022/03/08 04:36:04;;;;;;;7.85;7.05;;;-5.10;92.00;;;;;;4916979;29;20052;-81
2022/03/08 04:38:30;;;;;;;10.55;7.13;;;-5.00;91.90;;;;;;4936973;29;20031;-81
2022/03/08 04:40:56;;;;;;;7.70;6.63;;;-5.00;91.50;;;;;;4920154;29;20050;-81
2022/03/08 04:43:23;;;;;;;8.27;7.47;;;-5.00;91.50;;;;;;4920351;29;20054;-82
2022/03/08 04:45:50;;;;;;;7.28;6.60;;;-5.00;91.90;;;;;;4931337;29;20052;-82
2022/03/08 04:48:16;;;;;;;8.18;7.38;;;-5.10;92.00;;;;;;4926754;29;20051;-81
2022/03/08 04:50:43;;;;;;;7.70;6.90;;;-5.20;92.20;;;;;;4937653;29;20140;-82
2022/03/08 04:53:09;;;;;;;6.57;5.97;;;-5.30;92.40;;;;;;4935646;29;20515;-80
2022/03/08 04:55:35;;;;;;;7.80;7.10;;;-5.40;93.40;;;;;;4936381;29;20042;-81
2022/03/08 04:58:06;;;;;;;7.88;7.07;;;-5.40;93.40;;;;;;4935712;29;20036;-82
2022/03/08 05:00:32;;;;;;;6.90;6.30;;;-5.40;93.70;;;;;;4920366;29;20031;-82
2022/03/08 05:02:59;;;;;;;7.47;6.72;;;-5.40;93.40;;;;;;4920162;29;20417;-81
2022/03/08 05:05:25;;;;;;;8.50;7.60;;;-5.40;93.40;;;;;;4918792;29;20064;-82
2022/03/08 05:07:51;;;;;;;7.78;6.93;;;-5.40;93.60;;;;;;4928681;29;20046;-82
2022/03/08 05:10:17;;;;;;;7.57;6.72;;;-5.30;93.90;;;;;;4934916;29;20040;-82
2022/03/08 05:12:44;;;;;;;8.00;6.60;;;-5.30;93.40;;;;;;4900073;29;20051;-82
2022/03/08 05:15:11;;;;;;;9.45;7.70;;;-5.40;93.40;;;;;;4918322;29;20381;-78
2022/03/08 05:17:37;;;;;;;7.03;6.40;;;-5.40;93.80;;;;;;4936250;29;20036;-77
2022/03/08 05:20:05;;;;;;;9.18;7.15;;;-5.40;93.60;;;;;;4932447;29;20124;-77
2022/03/08 05:22:31;;;;;;;10.73;8.63;;;-5.40;93.70;;;;;;4929150;29;20032;-77
2022/03/08 05:24:58;;;;;;;7.30;6.65;;;-5.40;93.80;;;;;;4930185;29;20044;-78
2022/03/08 05:27:24;;;;;;;8.05;7.28;;;-5.50;93.90;;;;;;4932175;29;20063;-78
2022/03/08 05:29:50;;;;;;;10.20;7.40;;;-5.50;93.90;;;;;;4936235;29;20362;-78
2022/03/08 05:32:17;;;;;;;8.50;7.55;;;-5.60;94.00;;;;;;4936232;29;20469;-78
2022/03/08 05:34:43;;;;;;;8.65;7.95;;;-5.60;94.80;;;;;;4935958;29;20103;-78
2022/03/08 05:37:09;;;;;;;10.02;8.00;;;-5.50;95.20;;;;;;4938602;29;20128;-77
2022/03/08 05:39:35;;;;;;;7.43;6.82;;;-5.50;95.40;;;;;;4936499;29;20050;-77
2022/03/08 05:42:02;;;;;;;7.72;6.57;;;-5.50;95.50;;;;;;4935455;29;20042;-77
2022/03/08 05:44:28;;;;;;;8.65;7.72;;;-5.50;95.70;;;;;;4934281;29;20067;-77
2022/03/08 05:46:54;;;;;;;8.98;8.05;;;-5.50;95.70;;;;;;4934873;29;20028;-78
2022/03/08 05:49:22;;;;;;;8.13;6.85;;;-5.60;95.90;;;;;;4934470;29;20032;-77
2022/03/08 05:51:49;;;;;;;8.43;7.55;;;-5.50;96.10;;;;;;4932205;29;20043;-78
2022/03/08 05:54:15;;;;;;;10.32;9.43;;;-5.40;96.10;;;;;;4929675;29;20035;-77
2022/03/08 05:56:42;;;;;;;8.88;8.00;;;-5.50;96.10;;;;;;4931892;29;20038;-77
2022/03/08 05:59:09;;;;;;;10.43;9.07;;;-5.50;96.70;;;;;;4929292;29;20028;-76
2022/03/08 06:01:35;;;;;;;8.95;8.05;;;-5.50;96.70;;;;;;4934687;29;20036;-76
2022/03/08 06:04:01;;;;;;;11.32;8.57;;;-5.50;96.70;;;;;;4933385;29;20043;-76
2022/03/08 06:06:27;;;;;;;13.27;9.43;;;-5.50;96.80;;;;;;4934228;29;20500;-76
2022/03/08 06:08:54;;;;;;;14.10;10.73;;;-5.50;96.90;;;;;;4930924;29;20036;-76
2022/03/08 06:11:20;;;;;;;16.55;11.75;;;-5.40;97.30;;;;;;4933900;29;20036;-76
2022/03/08 06:13:46;;;;;;;12.23;11.05;;;-5.30;96.80;;;;;;4930662;29;20453;-78
2022/03/08 06:16:13;;;;;;;16.20;12.50;;;-5.30;96.50;;;;;;4927871;29;20043;-76
2022/03/08 06:18:40;;;;;;;14.80;13.25;;;-5.20;96.40;;;;;;4934894;29;20036;-76
2022/03/08 06:21:06;;;;;;;11.75;10.65;;;-5.20;96.00;;;;;;4934412;29;20187;-76
2022/03/08 06:23:33;;;;;;;11.63;10.25;;;-5.10;96.00;;;;;;4933027;29;20050;-76
2022/03/08 06:25:59;;;;;;;12.32;10.55;;;-5.00;95.50;;;;;;4932916;29;20480;-76
2022/03/08 06:28:25;;;;;;;13.70;12.50;;;-4.90;95.10;;;;;;4934527;29;20050;-76
2022/03/08 06:30:52;;;;;;;15.35;13.75;;;-4.80;94.60;;;;;;4934191;29;20031;-76
2022/03/08 06:33:18;;;;;;;14.25;13.00;;;-4.70;94.60;;;;;;4934636;29;20035;-76
2022/03/08 06:35:44;;;;;;;15.48;13.82;;;-4.70;94.30;;;;;;4933881;29;20047;-76
2022/03/08 06:38:10;;;;;;;11.63;10.52;;;-4.60;94.30;;;;;;4930248;29;20032;-76
2022/03/08 06:40:37;;;;;;;11.23;10.23;;;-4.50;94.20;;;;;;4934502;29;20029;-76
2022/03/08 06:43:03;;;;;;;13.35;10.77;;;-4.30;93.80;;;;;;4932378;29;20048;-76
2022/03/08 06:45:29;;;;;;;8.63;7.80;;;-3.50;94.10;;;;;;4930022;29;20040;-77
2022/03/08 06:47:55;;;;;;;8.95;7.25;;;-2.40;91.70;;;;;;4936235;29;20036;-77
2022/03/08 06:50:22;;;;;;;13.27;7.43;;;-1.40;83.80;;;;;;4925754;29;20031;-74
2022/03/08 06:52:49;;;;;;;12.13;6.82;;;-0.40;76.80;;;;;;4932486;29;20381;-77
2022/03/08 06:55:15;;;;;;;9.73;7.85;;;0.50;74.40;;;;;;4900240;29;20050;-75
2022/03/08 06:57:41;;;;;;;10.75;7.95;;;0.90;68.90;;;;;;4934174;29;20496;-75
2022/03/08 07:00:08;;;;;;;7.95;7.05;;;1.80;66.40;;;;;;4927922;29;20032;-75
2022/03/08 07:02:35;;;;;;;10.48;7.90;;;2.10;63.10;;;;;;4933884;29;20024;-75
2022/03/08 07:05:02;;;;;;;9.10;7.32;;;2.70;60.90;;;;;;4932499;29;20047;-75
2022/03/08 07:07:29;;;;;;;10.73;7.57;;;3.00;59.70;;;;;;4929349;29;20047;-75
2022/03/08 07:09:55;;;;;;;7.93;7.20;;;2.20;60.80;;;;;;4929044;29;20042;-75
2022/03/08 07:12:21;;;;;;;9.27;7.40;;;2.00;62.20;;;;;;4932304;29;20032;-75
2022/03/08 07:14:48;;;;;;;8.90;8.10;;;1.70;62.20;;;;;;4928401;29;20039;-77
2022/03/08 07:17:14;;;;;;;11.85;7.57;;;2.10;62.20;;;;;;4933112;29;20043;-75
2022/03/08 07:19:40;;;;;;;8.88;8.07;;;2.70;61.20;;;;;;4933913;29;20031;-75
2022/03/08 07:22:06;;;;;;;9.25;7.63;;;3.70;57.60;;;;;;4933851;29;20091;-75
2022/03/08 07:24:33;;;;;;;11.65;8.60;;;3.00;58.60;;;;;;4935273;29;20050;-76
2022/03/08 07:27:00;;;;;;;9.65;7.65;;;2.30;60.70;;;;;;4936837;29;20036;-76
2022/03/08 07:29:27;;;;;;;9.35;7.85;;;2.10;61.20;;;;;;4937536;29;20048;-76
2022/03/08 07:31:53;;;;;;;11.10;9.90;;;2.10;62.60;;;;;;4937347;29;20478;-75
2022/03/08 07:34:21;;;;;;;10.93;9.20;;;2.50;61.90;;;;;;4931081;29;20397;-76
2022/03/08 07:36:47;;;;;;;11.10;9.15;;;2.70;60.10;;;;;;4934984;29;20059;-77
2022/03/08 07:39:13;;;;;;;13.23;9.18;;;2.60;61.00;;;;;;4937738;29;20032;-75
2022/03/08 07:41:39;;;;;;;13.48;10.65;;;2.50;61.20;;;;;;4937827;29;20507;-76
2022/03/08 07:44:06;;;;;;;10.25;9.13;;;2.80;61.20;;;;;;4936379;29;20070;-76
2022/03/08 07:46:32;;;;;;;15.02;10.43;;;3.50;60.00;;;;;;4937254;29;20027;-76
2022/03/08 07:48:58;;;;;;;13.25;11.40;;;3.80;57.60;;;;;;4934424;29;20032;-76
2022/03/08 07:51:25;;;;;;;15.20;10.07;;;4.40;57.40;;;;;;4934732;29;20391;-76
2022/03/08 07:53:51;;;;;;;12.20;10.00;;;4.70;55.30;;;;;;4929608;29;20057;-76
2022/03/08 07:56:18;;;;;;;11.02;9.25;;;4.20;55.00;;;;;;4936637;29;20036;-76
2022/03/08 07:58:46;;;;;;;16.55;11.52;;;3.80;56.10;;;;;;4936715;29;20034;-76
2022/03/08 08:01:13;;;;;;;10.45;8.80;;;3.70;56.50;;;;;;4937237;29;20028;-75
2022/03/08 08:03:39;;;;;;;10.50;9.15;;;4.40;55.10;;;;;;4936718;29;20051;-75
2022/03/08 08:06:05;;;;;;;10.75;7.95;;;4.90;54.10;;;;;;4934711;29;20532;-75
2022/03/08 08:08:32;;;;;;;8.00;7.20;;;5.10;53.40;;;;;;4935898;29;20051;-76
2022/03/08 08:10:58;;;;;;;9.73;7.55;;;5.60;52.30;;;;;;4936645;29;20028;-75
2022/03/08 08:13:24;;;;;;;8.57;6.25;;;5.90;51.30;;;;;;4935271;29;20028;-75
2022/03/08 08:15:50;;;;;;;9.18;6.93;;;6.50;50.20;;;;;;4935600;29;20036;-75
2022/03/08 08:18:16;;;;;;;7.57;6.60;;;6.60;49.30;;;;;;4934656;29;20051;-75
2022/03/08 08:20:43;;;;;;;11.35;7.57;;;6.70;49.90;;;;;;4933800;29;20385;-75
2022/03/08 08:23:09;;;;;;;8.07;7.28;;;7.20;48.50;;;;;;4936826;29;20038;-75
2022/03/08 08:25:35;;;;;;;11.55;6.25;;;8.30;47.80;;;;;;4936655;29;20031;-75
2022/03/08 08:28:01;;;;;;;7.53;6.50;;;8.90;45.20;;;;;;4935599;29;20035;-76
2022/03/08 08:30:28;;;;;;;7.22;6.47;;;9.20;44.70;;;;;;4937424;29;20043;-76
2022/03/08 08:32:54;;;;;;;7.35;6.13;;;10.10;44.40;;;;;;4933588;29;20031;-76
2022/03/08 08:35:20;;;;;;;8.57;5.53;;;10.90;42.70;;;;;;4935696;29;20067;-76
2022/03/08 08:37:46;;;;;;;8.43;5.65;;;11.60;40.90;;;;;;4932091;29;20027;-76
2022/03/08 08:40:13;;;;;;;8.15;6.00;;;11.70;41.90;;;;;;4931357;29;20434;-76
2022/03/08 08:42:39;;;;;;;7.40;5.13;;;12.40;41.10;;;;;;4933962;29;20028;-77
2022/03/08 08:45:06;;;;;;;5.63;4.88;;;12.00;41.00;;;;;;4929089;29;20035;-75
2022/03/08 08:47:33;;;;;;;5.93;5.15;;;11.90;40.60;;;;;;4928525;29;20050;-75
2022/03/08 08:49:59;;;;;;;6.25;5.18;;;11.50;41.30;;;;;;4931912;29;20047;-75
2022/03/08 08:52:25;;;;;;;7.78;6.05;;;11.80;42.00;;;;;;4934706;29;20055;-75
2022/03/08 08:54:52;;;;;;;10.05;4.90;;;10.70;42.60;;;;;;4933165;29;20044;-76
2022/03/08 08:57:18;;;;;;;8.15;5.88;;;11.60;41.40;;;;;;4932098;29;20039;-75
2022/03/08 08:59:44;;;;;;;5.18;3.95;;;11.70;40.40;;;;;;4933686;29;20397;-75
2022/03/08 09:02:10;;;;;;;4.68;3.28;;;11.70;40.40;;;;;;4935824;29;20496;-75
2022/03/08 09:04:37;;;;;;;5.00;4.38;;;11.60;40.60;;;;;;4934981;29;20039;-74
2022/03/08 09:07:04;;;;;;;4.82;4.43;;;11.20;40.60;;;;;;4936285;29;20055;-75
2022/03/08 09:09:30;;;;;;;4.43;4.00;;;9.60;42.20;;;;;;4936086;29;20035;-75
2022/03/08 09:11:56;;;;;;;5.18;3.50;;;9.80;42.30;;;;;;4935588;29;20035;-75
2022/03/08 09:14:23;;;;;;;3.85;3.45;;;10.30;42.10;;;;;;4934908;29;20051;-75
2022/03/08 09:16:49;;;;;;;5.43;3.65;;;9.60;41.30;;;;;;4934081;29;20039;-76
2022/03/08 09:19:15;;;;;;;5.30;3.20;;;9.90;41.10;;;;;;4934101;29;20039;-75
2022/03/08 09:21:41;;;;;;;4.72;3.20;;;11.40;39.90;;;;;;4933966;29;20036;-75
2022/03/08 09:24:08;;;;;;;3.85;3.40;;;11.50;39.10;;;;;;4934328;29;20040;-75
2022/03/08 09:26:34;;;;;;;5.63;2.88;;;11.00;38.60;;;;;;4934642;29;20028;-76
2022/03/08 09:29:00;;;;;;;5.32;3.45;;;11.10;39.60;;;;;;4918506;29;20031;-75
2022/03/08 09:31:26;;;;;;;5.70;2.70;;;10.00;39.30;;;;;;4936047;29;20040;-75
2022/03/08 09:33:53;;;;;;;3.72;2.63;;;10.50;39.20;;;;;;4913714;29;20039;-77
2022/03/08 09:36:19;;;;;;;7.22;3.53;;;11.30;38.60;;;;;;4935589;29;20055;-75
2022/03/08 09:38:45;;;;;;;3.53;2.83;;;10.40;38.60;;;;;;4935857;29;20027;-75
2022/03/08 09:41:12;;;;;;;4.65;3.92;;;10.30;39.60;;;;;;4934556;29;20039;-76
2022/03/08 09:43:38;;;;;;;3.30;2.97;;;10.60;39.40;;;;;;4935574;29;20027;-75
2022/03/08 09:46:05;;;;;;;4.18;2.85;;;10.80;38.10;;;;;;4933134;29;20039;-75
2022/03/08 09:48:32;;;;;;;3.75;3.20;;;10.40;39.20;;;;;;4935545;29;20031;-74
2022/03/08 09:51:02;;;;;;;3.60;3.20;;;10.60;39.10;;;;;;4935323;29;20043;-75
2022/03/08 09:53:29;;;;;;;;;;;11.10;38.10;;;;;;4935498;29;20032;-75
2022/03/08 09:56:00;;;;;;;5.22;3.05;;;10.90;38.40;;;;;;4936413;29;20372;-76
2022/03/08 09:58:26;;;;;;;4.72;3.78;;;10.50;39.20;;;;;;4936572;29;20044;-75
2022/03/08 10:00:55;;;;;;;3.92;3.35;;;10.40;39.10;;;;;;4934133;29;20036;-75
2022/03/08 10:03:41;;;;;;;5.03;3.45;;;9.80;39.30;;;;;;4934878;29;20035;-75
2022/03/08 10:06:10;;;;;;;4.47;2.97;;;9.00;40.10;;;;;;4933925;29;20048;-75
2022/03/08 10:08:37;;;;;;;3.45;3.00;;;8.50;40.60;;;;;;4934142;29;20035;-74
2022/03/08 10:11:11;;;;;;;4.28;3.17;;;8.40;41.50;;;;;;4933374;29;20040;-75
2022/03/08 10:13:45;;;;;;;6.13;3.22;;;8.30;41.50;;;;;;4930961;29;20036;-75
2022/03/08 10:16:24;;;;;;;4.03;3.30;;;8.10;41.50;;;;;;4930937;29;20359;-74
2022/03/08 10:18:56;;;;;;;3.05;2.75;;;8.20;41.30;;;;;;4917186;29;20414;-75
2022/03/08 10:21:28;;;;;;;2.85;2.55;;;8.40;41.20;;;;;;4934756;29;20047;-75
2022/03/08 10:23:55;;;;;;;5.97;2.95;;;8.60;40.50;;;;;;4929290;29;20035;-77
2022/03/08 10:26:22;;;;;;;5.53;4.13;;;8.30;40.80;;;;;;4935162;29;20462;-75
2022/03/08 10:28:51;;;;;;;2.75;2.42;;;8.30;41.00;;;;;;4928149;29;20031;-76
2022/03/08 10:31:18;;;;;;;3.42;3.00;;;7.80;41.00;;;;;;4934707;29;20043;-74
2022/03/08 10:33:46;;;;;;;3.15;2.83;;;8.00;41.70;;;;;;4932330;29;20051;-75
2022/03/08 10:36:23;;;;;;;4.38;3.63;;;8.00;41.40;;;;;;4935008;29;20043;-74
2022/03/08 10:39:09;;;;;;;6.30;3.58;;;7.60;41.80;;;;;;4933826;29;20393;-79
2022/03/08 10:41:47;;;;;;;5.88;3.25;;;7.90;42.10;;;;;;4934670;29;20039;-74
2022/03/08 10:44:14;;;;;;;4.32;3.03;;;7.90;41.90;;;;;;4926889;29;20059;-77
2022/03/08 10:46:40;;;;;;;3.50;3.20;;;8.00;41.80;;;;;;4934421;29;20047;-75
2022/03/08 10:49:13;;;;;;;3.20;2.90;;;8.10;41.70;;;;;;4933454;29;20301;-75
2022/03/08 10:51:40;;;;;;;3.65;3.20;;;8.10;41.80;;;;;;4933779;29;20043;-73
2022/03/08 10:54:14;;;;;;;5.88;3.53;;;8.10;41.90;;;;;;4932315;29;20466;-74
2022/03/08 10:56:45;;;;;;;5.15;3.58;;;8.20;41.80;;;;;;4931084;29;20043;-74
2022/03/08 10:59:12;;;;;;;4.18;3.78;;;8.30;41.80;;;;;;4934206;29;20417;-76
2022/03/08 11:01:39;;;;;;;3.53;3.22;;;8.40;41.40;;;;;;4929671;29;20386;-74
2022/03/08 11:04:20;;;;;;;5.72;4.20;;;8.30;41.90;;;;;;4932542;29;20117;-75
2022/03/08 11:06:50;;;;;;;4.30;3.80;;;8.70;41.80;;;;;;4934227;29;20133;-74
2022/03/08 11:09:18;;;;;;;6.15;4.18;;;8.70;41.30;;;;;;4934571;29;20044;-76
2022/03/08 11:11:45;;;;;;;5.97;3.92;;;8.80;41.10;;;;;;4927464;29;20043;-76
2022/03/08 11:14:13;;;;;;;4.10;3.58;;;8.70;41.00;;;;;;4929585;29;20477;-76
2022/03/08 11:16:39;;;;;;;5.40;3.33;;;8.70;41.80;;;;;;4934293;29;20393;-77
2022/03/08 11:19:06;;;;;;;4.25;2.72;;;8.70;41.00;;;;;;4929331;29;20042;-73
2022/03/08 11:21:34;;;;;;;4.30;2.90;;;8.70;40.10;;;;;;4934303;29;20359;-76
2022/03/08 11:24:03;;;;;;;4.28;3.63;;;8.40;40.20;;;;;;4929770;29;20094;-77
2022/03/08 11:26:30;;;;;;;3.58;3.08;;;8.20;40.30;;;;;;4934157;29;20042;-76
2022/03/08 11:28:58;;;;;;;4.78;3.33;;;8.30;40.50;;;;;;4933592;29;20047;-77
2022/03/08 11:31:31;;;;;;;4.45;3.33;;;8.40;40.60;;;;;;4934138;29;20043;-76
2022/03/08 11:34:14;;;;;;;3.00;2.63;;;8.60;40.50;;;;;;4932367;29;20055;-78
2022/03/08 11:37:02;;;;;;;4.05;2.88;;;8.50;40.30;;;;;;4934052;29;20043;-76
2022/03/08 11:39:29;;;;;;;10.07;3.80;;;8.70;40.50;;;;;;4933204;29;20044;-76
2022/03/08 11:41:56;;;;;;;5.25;3.33;;;8.70;40.20;;;;;;4933564;29;20038;-77
2022/03/08 11:44:34;;;;;;;4.30;2.95;;;8.90;40.10;;;;;;4928528;29;20466;-76
2022/03/08 11:47:04;;;;;;;3.55;3.08;;;9.00;39.50;;;;;;4926950;29;20409;-76
2022/03/08 11:49:40;;;;;;;3.47;3.00;;;9.00;40.20;;;;;;4932807;29;20043;-76
2022/03/08 11:52:19;;;;;;;5.47;3.63;;;9.20;39.70;;;;;;4931394;29;20059;-76
2022/03/08 11:54:57;;;;;;;5.65;3.05;;;9.40;39.70;;;;;;4930550;29;20043;-77
2022/03/08 11:57:48;;;;;;;3.92;3.00;;;9.20;39.30;;;;;;4934151;29;20044;-76
2022/03/08 12:00:16;;;;;;;5.20;3.70;;;9.20;39.00;;;;;;4929752;29;20458;-76
2022/03/08 12:02:53;;;;;;;6.18;4.20;;;9.30;39.70;;;;;;4934359;29;20508;-77
2022/03/08 12:05:40;;;;;;;3.45;3.10;;;9.30;38.90;;;;;;4936141;29;20027;-77
2022/03/08 12:08:24;;;;;;;2.55;2.35;;;9.40;39.20;;;;;;4937273;29;20032;-74
2022/03/08 12:11:00;;;;;;;6.28;2.85;;;9.40;39.30;;;;;;4937495;29;20040;-75
2022/03/08 12:13:33;;;;;;;4.00;3.60;;;9.50;38.70;;;;;;4934851;29;20039;-75
2022/03/08 12:16:08;;;;;;;3.33;2.92;;;9.40;38.50;;;;;;4934313;29;20043;-74
2022/03/08 12:18:39;;;;;;;4.18;2.72;;;9.40;38.20;;;;;;4936784;29;20040;-75
2022/03/08 12:21:14;;;;;;;2.58;2.38;;;9.40;38.10;;;;;;4936844;29;20044;-76
2022/03/08 12:24:00;;;;;;;3.50;3.20;;;9.50;37.70;;;;;;4929150;29;20445;-76
2022/03/08 12:26:31;;;;;;;3.05;2.65;;;9.30;37.90;;;;;;4931454;29;20031;-77
2022/03/08 12:29:11;;;;;;;5.55;3.20;;;9.20;38.10;;;;;;4931014;29;20035;-74
2022/03/08 12:31:56;;;;;;;3.65;3.28;;;9.50;38.00;;;;;;4935656;29;20043;-74
2022/03/08 12:34:40;;;;;;;7.53;2.83;;;9.60;38.30;;;;;;4935245;29;20047;-75
2022/03/08 12:37:14;;;;;;;3.30;2.70;;;9.40;37.90;;;;;;4935324;29;20040;-76
2022/03/08 12:39:56;;;;;;;7.40;3.38;;;9.70;38.00;;;;;;4937095;29;20043;-76
2022/03/08 12:42:23;;;;;;;3.47;3.00;;;9.90;38.00;;;;;;4933695;29;20036;-75
2022/03/08 12:45:00;;;;;;;3.08;2.50;;;10.00;37.70;;;;;;4934842;29;20046;-75
2022/03/08 12:47:29;;;;;;;4.78;3.00;;;10.10;38.10;;;;;;4932070;29;20039;-75
2022/03/08 12:50:17;;;;;;;3.80;2.72;;;10.10;37.10;;;;;;4936448;29;20108;-75
2022/03/08 12:52:46;;;;;;;7.10;2.65;;;10.00;36.40;;;;;;4936268;29;20039;-76